Terminal Aerodrome Forecast
Issued by NWS

Home | Current Version | Previous Version | Text Only | Print | Product List | Glossary On
Versions: 1 2 3 4 5 6 7 8 9 10 11 12 13
190
FTUS45 KABQ 251733
TAFGUP
TAF
KGUP 251733Z 2518/2618 VRB06KT P6SM FEW090 SCT150
     FM251900 16007KT P6SM SCT080 SCT150
     FM252100 14007KT P6SM VCTS BKN080CB BKN120
      TEMPO 2521/2601 VRB15G25KT
     FM260100 15008KT P6SM VCSH BKN090
     FM260600 VRB06KT P6SM BKN120
     FM261600 25006KT P6SM SCT150=

USA.gov is the U.S. government's official web portal to all federal, state and local government web resources and services.